HRGA4: Little River, Horatio, AR

                                SHEF ID:       HRGA4     Little River near Horatio, AR
STATION TYPE: Stream Gauge
Regulating: Stage = 21.50, Flow = 17539

PRECIP STAGE RIV-FLOW BAT-LOAD
in ft cfs volt
Ccp-Rev Ccp-Rev Ccp-Rev Ccp-Rev
(America/Chicago)
05/01 00:00 0.00 10.76 4973 12.54
05/01 01:00 0.00 10.67 4886 12.53
05/01 02:00 0.00 10.57 4790 12.51
05/01 03:00 0.00 10.49 4713 12.48
05/01 04:00 0.00 10.44 4666 12.45
05/01 05:00 0.00 10.42 4647 12.44
05/01 06:00 0.00 10.48 4704 12.41
05/01 07:00 0.00 10.56 4780 12.39
05/01 08:00 0.00 10.63 4847 12.42
05/01 09:00 0.00 10.68 4895 12.65
05/01 10:00 0.00 10.69 4905 12.99
05/01 11:00 0.00 10.67 4886 13.32
05/01 12:00 0.00 10.63 4847 13.36
05/01 13:00 0.00 10.58 4799 13.16
05/01 14:00 0.00 10.50 4723 13.08
05/01 15:00 0.00 10.41 4637 13.01
05/01 16:00 0.00 10.31 4543 12.93
05/01 17:00 0.00 10.21 4449 12.90
05/01 18:00 0.00 10.11 4355 12.88
05/01 19:00 0.00 10.02 4272 12.86
05/01 20:00 0.00 9.93 4189 12.81
05/01 21:00 0.00 9.83 4098 12.65
05/01 22:00 0.00 9.73 4007 12.60
05/01 23:00 0.00 9.62 3907 12.57
Data processed at Sat 02May2026 04:10 GMT

NOTICE: If you are parsing this page

Please convert to using our Data API. Starting early 2026 we will be migrating to: https://water.usace.army.mil with modern pages rendered in JavaScript. When this migration completes you will no longer be able to scrape this page! CWMSDataAPI (CDA)

Timeseries IDs (TSIDs)

TSIDs used from left to right in the data table
HORA.Precip-Inc.Total.1Hour.1Hour.Ccp-Rev
HORA.Stage.Inst.1Hour.0.Ccp-Rev
HORA.Flow.Inst.1Hour.0.Ccp-Rev
HORA.Volt-Battery Load.Inst.1Hour.0.Ccp-Rev

                            

All information presented herein is the property of the government of the United States of America and may be revised or deleted at any time without prior notice. Dissemination of this information without the expressed written consent of the Public Affairs Office, Tulsa District U.S. Army Corps of Engineers is strictly prohibited. These data are gathered electronically and, as presented, have NOT undergone any form of quality control. These data are NOT guaranteed to be valid or correct.